sensor_id;sensor_type;location;lat;lon;timestamp;pressure;altitude;pressure_sealevel;temperature;humidity
57594;BME280;43423;46.510;6.686;2023-07-30T00:01:44;96416.75;;;19.47;99.40
57594;BME280;43423;46.510;6.686;2023-07-30T00:04:09;96415.06;;;19.44;99.60
57594;BME280;43423;46.510;6.686;2023-07-30T00:06:35;96401.63;;;19.42;100.00
57594;BME280;43423;46.510;6.686;2023-07-30T00:09:01;96412.38;;;19.51;100.00
57594;BME280;43423;46.510;6.686;2023-07-30T00:11:26;96403.44;;;19.66;99.73
57594;BME280;43423;46.510;6.686;2023-07-30T00:13:52;96405.69;;;19.68;99.37
57594;BME280;43423;46.510;6.686;2023-07-30T00:16:18;96402.91;;;19.68;100.00
57594;BME280;43423;46.510;6.686;2023-07-30T00:18:43;96416.41;;;19.64;100.00
57594;BME280;43423;46.510;6.686;2023-07-30T00:21:09;96416.72;;;19.73;100.00
57594;BME280;43423;46.510;6.686;2023-07-30T00:23:34;96413.41;;;19.75;100.00
57594;BME280;43423;46.510;6.686;2023-07-30T00:26:00;96396.66;;;19.28;100.00
57594;BME280;43423;46.510;6.686;2023-07-30T00:28:25;96400.13;;;19.55;100.00
57594;BME280;43423;46.510;6.686;2023-07-30T00:30:51;96399.13;;;19.65;100.00
57594;BME280;43423;46.510;6.686;2023-07-30T00:33:16;96401.97;;;19.52;100.00
57594;BME280;43423;46.510;6.686;2023-07-30T00:35:42;96417.53;;;19.82;100.00
57594;BME280;43423;46.510;6.686;2023-07-30T00:38:07;96409.59;;;19.86;100.00
57594;BME280;43423;46.510;6.686;2023-07-30T00:40:39;96412.84;;;19.76;100.00
57594;BME280;43423;46.510;6.686;2023-07-30T00:43:05;96416.25;;;19.83;100.00
57594;BME280;43423;46.510;6.686;2023-07-30T00:45:31;96415.31;;;19.80;100.00
57594;BME280;43423;46.510;6.686;2023-07-30T00:47:56;96403.69;;;19.89;99.77
57594;BME280;43423;46.510;6.686;2023-07-30T00:50:22;96410.22;;;19.58;100.00
57594;BME280;43423;46.510;6.686;2023-07-30T00:52:48;96401.38;;;19.67;100.00
57594;BME280;43423;46.510;6.686;2023-07-30T00:55:14;96388.00;;;19.52;100.00
57594;BME280;43423;46.510;6.686;2023-07-30T00:57:41;96393.19;;;19.35;100.00
57594;BME280;43423;46.510;6.686;2023-07-30T01:00:08;96394.81;;;19.17;100.00
57594;BME280;43423;46.510;6.686;2023-07-30T01:02:36;96386.75;;;19.40;100.00
57594;BME280;43423;46.510;6.686;2023-07-30T01:05:02;96389.00;;;19.41;100.00
57594;BME280;43423;46.510;6.686;2023-07-30T01:07:32;96405.31;;;19.24;100.00
57594;BME280;43423;46.510;6.686;2023-07-30T01:09:59;96408.00;;;19.16;100.00
57594;BME280;43423;46.510;6.686;2023-07-30T01:12:26;96397.94;;;19.13;100.00
57594;BME280;43423;46.510;6.686;2023-07-30T01:14:54;96400.03;;;19.34;100.00
57594;BME280;43423;46.510;6.686;2023-07-30T01:17:21;96403.28;;;19.24;100.00
57594;BME280;43423;46.510;6.686;2023-07-30T01:19:47;96413.84;;;19.52;100.00
57594;BME280;43423;46.510;6.686;2023-07-30T01:22:15;96419.75;;;19.62;100.00
57594;BME280;43423;46.510;6.686;2023-07-30T01:24:41;96423.94;;;19.56;100.00
57594;BME280;43423;46.510;6.686;2023-07-30T01:27:07;96422.53;;;19.62;100.00
57594;BME280;43423;46.510;6.686;2023-07-30T01:29:47;96428.84;;;19.76;100.00
57594;BME280;43423;46.510;6.686;2023-07-30T01:32:14;96428.97;;;19.70;100.00
57594;BME280;43423;46.510;6.686;2023-07-30T01:34:41;96436.78;;;19.72;100.00
57594;BME280;43423;46.510;6.686;2023-07-30T01:37:11;96427.75;;;19.79;100.00
57594;BME280;43423;46.510;6.686;2023-07-30T01:39:37;96427.66;;;19.71;100.00
57594;BME280;43423;46.510;6.686;2023-07-30T01:42:05;96427.25;;;19.67;100.00
57594;BME280;43423;46.510;6.686;2023-07-30T01:44:30;96432.00;;;19.59;100.00
57594;BME280;43423;46.510;6.686;2023-07-30T01:46:56;96426.22;;;19.44;100.00
57594;BME280;43423;46.510;6.686;2023-07-30T01:49:21;96436.06;;;19.45;100.00
57594;BME280;43423;46.510;6.686;2023-07-30T01:51:47;96432.09;;;19.40;100.00
57594;BME280;43423;46.510;6.686;2023-07-30T01:54:13;96428.13;;;19.49;100.00
57594;BME280;43423;46.510;6.686;2023-07-30T01:56:39;96421.06;;;19.35;100.00
57594;BME280;43423;46.510;6.686;2023-07-30T01:59:04;96422.44;;;19.41;100.00
57594;BME280;43423;46.510;6.686;2023-07-30T02:01:30;96428.66;;;19.34;100.00
57594;BME280;43423;46.510;6.686;2023-07-30T02:03:55;96430.78;;;19.55;100.00
57594;BME280;43423;46.510;6.686;2023-07-30T02:06:21;96424.59;;;19.62;100.00
57594;BME280;43423;46.510;6.686;2023-07-30T02:08:47;96445.50;;;19.68;100.00
57594;BME280;43423;46.510;6.686;2023-07-30T02:11:12;96438.41;;;19.67;100.00
57594;BME280;43423;46.510;6.686;2023-07-30T02:13:38;96439.56;;;19.72;100.00
57594;BME280;43423;46.510;6.686;2023-07-30T02:16:04;96432.19;;;19.48;100.00
57594;BME280;43423;46.510;6.686;2023-07-30T02:18:29;96434.66;;;19.51;100.00
57594;BME280;43423;46.510;6.686;2023-07-30T02:20:55;96438.88;;;19.32;100.00
57594;BME280;43423;46.510;6.686;2023-07-30T02:23:21;96439.31;;;19.22;100.00
57594;BME280;43423;46.510;6.686;2023-07-30T02:25:46;96435.00;;;19.35;100.00
57594;BME280;43423;46.510;6.686;2023-07-30T02:28:12;96425.47;;;19.17;100.00
57594;BME280;43423;46.510;6.686;2023-07-30T02:30:37;96419.50;;;19.13;100.00
57594;BME280;43423;46.510;6.686;2023-07-30T02:33:03;96409.94;;;19.21;100.00
57594;BME280;43423;46.510;6.686;2023-07-30T02:35:29;96411.66;;;19.11;100.00
57594;BME280;43423;46.510;6.686;2023-07-30T02:37:54;96416.81;;;18.94;100.00
57594;BME280;43423;46.510;6.686;2023-07-30T02:40:20;96411.00;;;19.18;100.00
57594;BME280;43423;46.510;6.686;2023-07-30T02:42:45;96421.53;;;19.12;100.00
57594;BME280;43423;46.510;6.686;2023-07-30T02:45:11;96430.09;;;19.14;100.00
57594;BME280;43423;46.510;6.686;2023-07-30T02:47:37;96419.69;;;19.15;100.00
57594;BME280;43423;46.510;6.686;2023-07-30T02:50:06;96420.25;;;19.13;100.00
57594;BME280;43423;46.510;6.686;2023-07-30T02:52:31;96425.28;;;19.28;100.00
57594;BME280;43423;46.510;6.686;2023-07-30T02:54:57;96424.09;;;19.23;100.00
57594;BME280;43423;46.510;6.686;2023-07-30T02:57:22;96426.00;;;19.29;100.00
57594;BME280;43423;46.510;6.686;2023-07-30T02:59:48;96423.88;;;19.21;100.00
57594;BME280;43423;46.510;6.686;2023-07-30T03:02:13;96432.88;;;19.28;100.00
57594;BME280;43423;46.510;6.686;2023-07-30T03:04:39;96435.13;;;19.29;100.00
57594;BME280;43423;46.510;6.686;2023-07-30T03:07:06;96433.41;;;19.26;100.00
57594;BME280;43423;46.510;6.686;2023-07-30T03:09:31;96419.91;;;19.17;100.00
57594;BME280;43423;46.510;6.686;2023-07-30T03:11:59;96419.81;;;19.09;100.00
57594;BME280;43423;46.510;6.686;2023-07-30T03:14:24;96421.28;;;19.10;100.00
57594;BME280;43423;46.510;6.686;2023-07-30T03:16:50;96413.03;;;19.18;100.00
57594;BME280;43423;46.510;6.686;2023-07-30T03:19:16;96413.38;;;19.14;100.00
57594;BME280;43423;46.510;6.686;2023-07-30T03:21:41;96410.91;;;19.24;100.00
57594;BME280;43423;46.510;6.686;2023-07-30T03:24:07;96414.25;;;18.96;100.00
57594;BME280;43423;46.510;6.686;2023-07-30T03:26:33;96412.41;;;18.85;100.00
57594;BME280;43423;46.510;6.686;2023-07-30T03:28:59;96402.66;;;19.05;100.00
57594;BME280;43423;46.510;6.686;2023-07-30T03:31:24;96413.56;;;19.30;100.00
57594;BME280;43423;46.510;6.686;2023-07-30T03:33:50;96419.81;;;19.22;100.00
57594;BME280;43423;46.510;6.686;2023-07-30T03:36:15;96413.56;;;19.30;100.00
57594;BME280;43423;46.510;6.686;2023-07-30T03:38:42;96406.06;;;19.38;100.00
57594;BME280;43423;46.510;6.686;2023-07-30T03:41:07;96418.53;;;18.97;100.00
57594;BME280;43423;46.510;6.686;2023-07-30T03:43:34;96423.44;;;19.17;100.00
57594;BME280;43423;46.510;6.686;2023-07-30T03:45:59;96426.66;;;19.21;100.00
57594;BME280;43423;46.510;6.686;2023-07-30T03:48:25;96435.25;;;18.97;100.00
57594;BME280;43423;46.510;6.686;2023-07-30T03:50:52;96431.59;;;19.15;100.00
57594;BME280;43423;46.510;6.686;2023-07-30T03:53:18;96430.41;;;18.84;100.00
57594;BME280;43423;46.510;6.686;2023-07-30T03:55:43;96430.31;;;19.16;100.00
57594;BME280;43423;46.510;6.686;2023-07-30T03:58:09;96424.09;;;19.23;100.00
57594;BME280;43423;46.510;6.686;2023-07-30T04:00:34;96430.75;;;19.07;100.00
57594;BME280;43423;46.510;6.686;2023-07-30T04:03:00;96431.81;;;19.17;100.00
57594;BME280;43423;46.510;6.686;2023-07-30T04:05:25;96429.44;;;19.08;100.00
57594;BME280;43423;46.510;6.686;2023-07-30T04:07:51;96434.91;;;19.27;100.00
57594;BME280;43423;46.510;6.686;2023-07-30T04:10:16;96434.88;;;19.40;100.00
57594;BME280;43423;46.510;6.686;2023-07-30T04:12:42;96439.91;;;19.42;100.00
57594;BME280;43423;46.510;6.686;2023-07-30T04:15:08;96433.75;;;19.22;100.00
57594;BME280;43423;46.510;6.686;2023-07-30T04:17:36;96438.78;;;19.24;100.00
57594;BME280;43423;46.510;6.686;2023-07-30T04:20:02;96438.88;;;19.45;100.00
57594;BME280;43423;46.510;6.686;2023-07-30T04:22:28;96442.09;;;19.22;100.00
57594;BME280;43423;46.510;6.686;2023-07-30T04:24:53;96444.88;;;19.36;100.00
57594;BME280;43423;46.510;6.686;2023-07-30T04:27:20;96445.84;;;19.38;100.00
57594;BME280;43423;46.510;6.686;2023-07-30T04:29:45;96444.66;;;19.47;100.00
57594;BME280;43423;46.510;6.686;2023-07-30T04:32:11;96450.47;;;19.22;100.00
57594;BME280;43423;46.510;6.686;2023-07-30T04:34:36;96438.44;;;19.41;100.00
57594;BME280;43423;46.510;6.686;2023-07-30T04:37:02;96438.25;;;19.12;100.00
57594;BME280;43423;46.510;6.686;2023-07-30T04:39:30;96436.72;;;19.24;100.00
57594;BME280;43423;46.510;6.686;2023-07-30T04:41:57;96448.72;;;19.19;100.00
57594;BME280;43423;46.510;6.686;2023-07-30T04:44:23;96443.16;;;19.19;100.00
57594;BME280;43423;46.510;6.686;2023-07-30T04:46:49;96442.75;;;19.29;100.00
57594;BME280;43423;46.510;6.686;2023-07-30T04:49:14;96443.25;;;19.40;100.00
57594;BME280;43423;46.510;6.686;2023-07-30T04:51:40;96447.25;;;18.92;100.00
57594;BME280;43423;46.510;6.686;2023-07-30T04:54:06;96447.13;;;19.11;100.00
57594;BME280;43423;46.510;6.686;2023-07-30T04:56:32;96446.25;;;19.42;100.00
57594;BME280;43423;46.510;6.686;2023-07-30T04:58:57;96442.09;;;19.22;100.00
57594;BME280;43423;46.510;6.686;2023-07-30T05:01:24;96446.28;;;19.16;100.00
57594;BME280;43423;46.510;6.686;2023-07-30T05:03:49;96444.44;;;19.45;100.00
57594;BME280;43423;46.510;6.686;2023-07-30T05:06:15;96450.56;;;19.30;100.00
57594;BME280;43423;46.510;6.686;2023-07-30T05:08:40;96447.88;;;19.38;100.00
57594;BME280;43423;46.510;6.686;2023-07-30T05:11:06;96444.00;;;19.54;100.00
57594;BME280;43423;46.510;6.686;2023-07-30T05:13:32;96435.31;;;19.58;100.00
57594;BME280;43423;46.510;6.686;2023-07-30T05:15:57;96431.66;;;19.63;100.00
57594;BME280;43423;46.510;6.686;2023-07-30T05:18:23;96435.34;;;19.05;100.00
57594;BME280;43423;46.510;6.686;2023-07-30T05:20:49;96435.72;;;19.48;100.00
57594;BME280;43423;46.510;6.686;2023-07-30T05:23:15;96443.38;;;19.61;100.00
57594;BME280;43423;46.510;6.686;2023-07-30T05:25:40;96432.44;;;19.37;100.00
57594;BME280;43423;46.510;6.686;2023-07-30T05:28:06;96440.56;;;19.48;100.00
57594;BME280;43423;46.510;6.686;2023-07-30T05:30:31;96446.16;;;19.61;100.00
57594;BME280;43423;46.510;6.686;2023-07-30T05:32:57;96445.91;;;19.72;100.00
57594;BME280;43423;46.510;6.686;2023-07-30T05:35:23;96457.91;;;19.80;100.00
57594;BME280;43423;46.510;6.686;2023-07-30T05:37:48;96442.41;;;19.93;100.00
57594;BME280;43423;46.510;6.686;2023-07-30T05:40:14;96455.28;;;19.96;100.00
57594;BME280;43423;46.510;6.686;2023-07-30T05:42:39;96459.38;;;19.95;100.00
57594;BME280;43423;46.510;6.686;2023-07-30T05:45:06;96459.44;;;19.68;100.00
57594;BME280;43423;46.510;6.686;2023-07-30T05:47:31;96462.41;;;19.84;100.00
57594;BME280;43423;46.510;6.686;2023-07-30T05:49:57;96463.56;;;19.88;100.00
57594;BME280;43423;46.510;6.686;2023-07-30T05:52:23;96464.13;;;19.87;100.00
57594;BME280;43423;46.510;6.686;2023-07-30T05:54:49;96470.31;;;19.93;100.00
57594;BME280;43423;46.510;6.686;2023-07-30T05:57:14;96468.47;;;19.95;100.00
57594;BME280;43423;46.510;6.686;2023-07-30T05:59:40;96468.59;;;19.90;100.00
57594;BME280;43423;46.510;6.686;2023-07-30T06:02:05;96475.75;;;19.98;100.00
57594;BME280;43423;46.510;6.686;2023-07-30T06:04:31;96484.91;;;19.99;100.00
57594;BME280;43423;46.510;6.686;2023-07-30T06:06:59;96483.16;;;20.09;100.00
57594;BME280;43423;46.510;6.686;2023-07-30T06:09:26;96488.66;;;20.01;100.00
57594;BME280;43423;46.510;6.686;2023-07-30T06:11:51;96493.94;;;19.92;100.00
57594;BME280;43423;46.510;6.686;2023-07-30T06:14:17;96488.09;;;20.03;100.00
57594;BME280;43423;46.510;6.686;2023-07-30T06:16:43;96488.94;;;19.77;100.00
57594;BME280;43423;46.510;6.686;2023-07-30T06:19:10;96494.78;;;20.00;100.00
57594;BME280;43423;46.510;6.686;2023-07-30T06:21:35;96490.03;;;20.08;100.00
57594;BME280;43423;46.510;6.686;2023-07-30T06:24:01;96493.13;;;19.31;100.00
57594;BME280;43423;46.510;6.686;2023-07-30T06:26:26;96499.84;;;18.95;100.00
57594;BME280;43423;46.510;6.686;2023-07-30T06:28:58;96502.88;;;19.37;100.00
57594;BME280;43423;46.510;6.686;2023-07-30T06:31:24;96515.34;;;19.36;100.00
57594;BME280;43423;46.510;6.686;2023-07-30T06:33:49;96512.41;;;19.42;100.00
57594;BME280;43423;46.510;6.686;2023-07-30T06:36:15;96519.06;;;19.39;100.00
57594;BME280;43423;46.510;6.686;2023-07-30T06:38:40;96521.84;;;18.99;100.00
57594;BME280;43423;46.510;6.686;2023-07-30T06:41:06;96533.00;;;19.12;100.00
57594;BME280;43423;46.510;6.686;2023-07-30T06:43:31;96535.94;;;18.88;100.00
57594;BME280;43423;46.510;6.686;2023-07-30T06:45:57;96538.69;;;19.07;100.00
57594;BME280;43423;46.510;6.686;2023-07-30T06:48:23;96536.47;;;18.86;100.00
57594;BME280;43423;46.510;6.686;2023-07-30T06:50:48;96540.81;;;19.01;100.00
57594;BME280;43423;46.510;6.686;2023-07-30T06:53:14;96539.31;;;19.26;100.00
57594;BME280;43423;46.510;6.686;2023-07-30T06:55:39;96541.16;;;19.50;100.00
57594;BME280;43423;46.510;6.686;2023-07-30T06:58:05;96534.72;;;19.55;100.00
57594;BME280;43423;46.510;6.686;2023-07-30T07:00:30;96542.78;;;19.59;100.00
57594;BME280;43423;46.510;6.686;2023-07-30T07:02:56;96531.13;;;19.60;100.00
57594;BME280;43423;46.510;6.686;2023-07-30T07:05:22;96538.81;;;19.54;100.00
57594;BME280;43423;46.510;6.686;2023-07-30T07:07:47;96550.09;;;19.75;100.00
57594;BME280;43423;46.510;6.686;2023-07-30T07:10:13;96537.84;;;19.51;100.00
57594;BME280;43423;46.510;6.686;2023-07-30T07:12:39;96541.34;;;18.99;100.00
57594;BME280;43423;46.510;6.686;2023-07-30T07:15:05;96545.41;;;19.11;100.00
57594;BME280;43423;46.510;6.686;2023-07-30T07:17:31;96536.84;;;19.09;100.00
57594;BME280;43423;46.510;6.686;2023-07-30T07:19:57;96530.59;;;18.90;100.00
57594;BME280;43423;46.510;6.686;2023-07-30T07:22:23;96545.72;;;18.94;100.00
57594;BME280;43423;46.510;6.686;2023-07-30T07:24:50;96541.28;;;19.31;100.00
57594;BME280;43423;46.510;6.686;2023-07-30T07:27:18;96540.31;;;19.29;100.00
57594;BME280;43423;46.510;6.686;2023-07-30T07:29:43;96536.00;;;19.41;98.11
57594;BME280;43423;46.510;6.686;2023-07-30T07:32:09;96540.06;;;19.27;95.36
57594;BME280;43423;46.510;6.686;2023-07-30T07:34:35;96539.88;;;19.51;100.00
57594;BME280;43423;46.510;6.686;2023-07-30T07:37:01;96549.75;;;19.39;99.43
57594;BME280;43423;46.510;6.686;2023-07-30T07:39:27;96547.69;;;19.26;98.00
57594;BME280;43423;46.510;6.686;2023-07-30T07:41:53;96554.28;;;19.68;98.84
57594;BME280;43423;46.510;6.686;2023-07-30T07:44:18;96553.81;;;19.51;98.59
57594;BME280;43423;46.510;6.686;2023-07-30T07:46:44;96546.97;;;19.92;97.29
57594;BME280;43423;46.510;6.686;2023-07-30T07:49:09;96555.47;;;20.20;94.96
57594;BME280;43423;46.510;6.686;2023-07-30T07:51:35;96552.09;;;20.48;89.18
57594;BME280;43423;46.510;6.686;2023-07-30T07:54:01;96557.81;;;20.29;90.41
57594;BME280;43423;46.510;6.686;2023-07-30T07:56:27;96560.75;;;20.58;91.20
57594;BME280;43423;46.510;6.686;2023-07-30T07:58:52;96566.00;;;20.82;88.96
57594;BME280;43423;46.510;6.686;2023-07-30T08:01:18;96566.75;;;21.04;86.82
57594;BME280;43423;46.510;6.686;2023-07-30T08:03:44;96575.34;;;21.06;87.70
57594;BME280;43423;46.510;6.686;2023-07-30T08:06:10;96566.81;;;21.32;84.79
57594;BME280;43423;46.510;6.686;2023-07-30T08:08:35;96560.84;;;21.57;83.72
57594;BME280;43423;46.510;6.686;2023-07-30T08:11:06;96565.06;;;21.79;83.64
57594;BME280;43423;46.510;6.686;2023-07-30T08:13:32;96558.00;;;21.85;83.29
57594;BME280;43423;46.510;6.686;2023-07-30T08:15:58;96553.81;;;21.71;82.01
57594;BME280;43423;46.510;6.686;2023-07-30T08:18:23;96553.06;;;22.07;80.16
57594;BME280;43423;46.510;6.686;2023-07-30T08:20:49;96555.88;;;22.07;81.15
57594;BME280;43423;46.510;6.686;2023-07-30T08:23:15;96562.66;;;22.26;80.48
57594;BME280;43423;46.510;6.686;2023-07-30T08:25:40;96551.22;;;22.09;79.57
57594;BME280;43423;46.510;6.686;2023-07-30T08:28:06;96555.41;;;22.31;80.81
57594;BME280;43423;46.510;6.686;2023-07-30T08:30:32;96553.75;;;22.43;82.73
57594;BME280;43423;46.510;6.686;2023-07-30T08:32:57;96564.41;;;22.01;82.55
57594;BME280;43423;46.510;6.686;2023-07-30T08:35:23;96558.00;;;21.85;78.61
57594;BME280;43423;46.510;6.686;2023-07-30T08:37:49;96557.91;;;22.06;81.93
57594;BME280;43423;46.510;6.686;2023-07-30T08:40:14;96556.91;;;21.88;79.51
57594;BME280;43423;46.510;6.686;2023-07-30T08:42:40;96562.97;;;22.08;78.86
57594;BME280;43423;46.510;6.686;2023-07-30T08:45:06;96559.97;;;22.06;79.68
57594;BME280;43423;46.510;6.686;2023-07-30T08:47:34;96559.94;;;21.33;80.93
57594;BME280;43423;46.510;6.686;2023-07-30T08:50:00;96559.81;;;21.46;80.21
57594;BME280;43423;46.510;6.686;2023-07-30T08:52:28;96563.19;;;21.24;83.27
57594;BME280;43423;46.510;6.686;2023-07-30T08:54:55;96562.53;;;21.10;84.06
57594;BME280;43423;46.510;6.686;2023-07-30T08:57:22;96565.44;;;21.26;82.21
57594;BME280;43423;46.510;6.686;2023-07-30T08:59:54;96561.78;;;21.59;79.63
57594;BME280;43423;46.510;6.686;2023-07-30T09:02:30;96562.75;;;21.69;80.75
57594;BME280;43423;46.510;6.686;2023-07-30T09:05:00;96549.66;;;21.57;81.28
57594;BME280;43423;46.510;6.686;2023-07-30T09:07:26;96556.03;;;21.65;78.69
57594;BME280;43423;46.510;6.686;2023-07-30T09:09:51;96557.81;;;21.83;80.68
57594;BME280;43423;46.510;6.686;2023-07-30T09:12:17;96561.13;;;21.25;80.11
57594;BME280;43423;46.510;6.686;2023-07-30T09:14:43;96554.03;;;21.24;79.69
57594;BME280;43423;46.510;6.686;2023-07-30T09:19:43;96564.16;;;21.84;77.78
57594;BME280;43423;46.510;6.686;2023-07-30T09:22:09;96562.28;;;22.15;77.26
57594;BME280;43423;46.510;6.686;2023-07-30T09:24:35;96560.06;;;22.21;77.08
57594;BME280;43423;46.510;6.686;2023-07-30T09:27:02;96568.34;;;22.49;76.51
57594;BME280;43423;46.510;6.686;2023-07-30T09:29:28;96561.28;;;22.64;75.97
57594;BME280;43423;46.510;6.686;2023-07-30T09:31:54;96572.91;;;22.75;74.37
57594;BME280;43423;46.510;6.686;2023-07-30T09:34:23;96572.16;;;22.67;73.55
57594;BME280;43423;46.510;6.686;2023-07-30T09:36:53;96571.78;;;22.78;74.74
57594;BME280;43423;46.510;6.686;2023-07-30T09:39:22;96571.75;;;22.71;72.66
57594;BME280;43423;46.510;6.686;2023-07-30T09:41:49;96574.41;;;22.84;71.69
57594;BME280;43423;46.510;6.686;2023-07-30T09:44:17;96571.03;;;22.78;72.55
57594;BME280;43423;46.510;6.686;2023-07-30T09:46:44;96573.31;;;23.02;72.43
57594;BME280;43423;46.510;6.686;2023-07-30T09:49:13;96578.19;;;23.25;71.85
57594;BME280;43423;46.510;6.686;2023-07-30T09:51:39;96582.50;;;23.10;67.73
57594;BME280;43423;46.510;6.686;2023-07-30T09:54:09;96579.69;;;23.26;66.86
57594;BME280;43423;46.510;6.686;2023-07-30T09:56:39;96580.03;;;23.30;64.69
57594;BME280;43423;46.510;6.686;2023-07-30T09:59:06;96589.03;;;23.05;63.21
57594;BME280;43423;46.510;6.686;2023-07-30T10:01:42;96586.03;;;23.34;63.43
57594;BME280;43423;46.510;6.686;2023-07-30T10:04:09;96590.16;;;23.48;60.86
57594;BME280;43423;46.510;6.686;2023-07-30T10:06:39;96589.78;;;23.67;63.85
57594;BME280;43423;46.510;6.686;2023-07-30T10:09:08;96587.34;;;23.48;61.04
57594;BME280;43423;46.510;6.686;2023-07-30T10:11:37;96587.34;;;23.18;58.92
57594;BME280;43423;46.510;6.686;2023-07-30T10:14:03;96593.88;;;23.35;60.93
57594;BME280;43423;46.510;6.686;2023-07-30T10:16:29;96581.16;;;23.50;59.89
57594;BME280;43423;46.510;6.686;2023-07-30T10:18:56;96591.81;;;23.66;58.12
57594;BME280;43423;46.510;6.686;2023-07-30T10:21:24;96591.41;;;23.85;59.03
57594;BME280;43423;46.510;6.686;2023-07-30T10:24:02;96587.91;;;23.62;59.45
57594;BME280;43423;46.510;6.686;2023-07-30T10:26:30;96591.81;;;23.66;60.46
57594;BME280;43423;46.510;6.686;2023-07-30T10:31:40;96592.56;;;23.75;59.11
57594;BME280;43423;46.510;6.686;2023-07-30T10:34:08;96588.06;;;23.79;57.64
57594;BME280;43423;46.510;6.686;2023-07-30T10:36:43;96593.81;;;23.97;57.92
57594;BME280;43423;46.510;6.686;2023-07-30T10:41:37;96593.31;;;24.31;57.60
57594;BME280;43423;46.510;6.686;2023-07-30T10:44:03;96595.22;;;24.28;54.90
57594;BME280;43423;46.510;6.686;2023-07-30T10:46:29;96598.97;;;24.23;53.57
57594;BME280;43423;46.510;6.686;2023-07-30T10:48:54;96599.19;;;24.17;54.24
57594;BME280;43423;46.510;6.686;2023-07-30T10:51:20;96599.00;;;24.15;53.28
57594;BME280;43423;46.510;6.686;2023-07-30T10:53:50;96594.88;;;24.16;50.88
57594;BME280;43423;46.510;6.686;2023-07-30T10:56:22;96600.25;;;24.37;51.07
57594;BME280;43423;46.510;6.686;2023-07-30T10:58:52;96587.59;;;24.13;50.82
57594;BME280;43423;46.510;6.686;2023-07-30T11:01:18;96578.38;;;24.20;52.21
57594;BME280;43423;46.510;6.686;2023-07-30T11:03:48;96581.53;;;24.24;50.42
57594;BME280;43423;46.510;6.686;2023-07-30T11:06:13;96584.97;;;24.08;49.88
57594;BME280;43423;46.510;6.686;2023-07-30T11:08:43;96580.28;;;24.18;49.34
57594;BME280;43423;46.510;6.686;2023-07-30T11:11:10;96596.69;;;24.37;49.70
57594;BME280;43423;46.510;6.686;2023-07-30T11:13:39;96588.31;;;24.21;48.71
57594;BME280;43423;46.510;6.686;2023-07-30T11:16:07;96591.09;;;24.29;48.49
57594;BME280;43423;46.510;6.686;2023-07-30T11:18:33;96590.91;;;24.35;48.69
57594;BME280;43423;46.510;6.686;2023-07-30T11:21:07;96588.84;;;24.28;47.68
57594;BME280;43423;46.510;6.686;2023-07-30T11:23:34;96586.94;;;24.38;49.69
57594;BME280;43423;46.510;6.686;2023-07-30T11:26:02;96577.94;;;24.39;47.53
57594;BME280;43423;46.510;6.686;2023-07-30T11:28:38;96590.72;;;24.33;47.57
57594;BME280;43423;46.510;6.686;2023-07-30T11:31:07;96581.53;;;24.32;46.53
57594;BME280;43423;46.510;6.686;2023-07-30T11:33:38;96583.34;;;24.77;47.11
57594;BME280;43423;46.510;6.686;2023-07-30T11:36:05;96585.97;;;24.50;46.59
57594;BME280;43423;46.510;6.686;2023-07-30T11:38:32;96588.22;;;24.44;45.80
57594;BME280;43423;46.510;6.686;2023-07-30T11:40:58;96576.34;;;24.61;44.92
57594;BME280;43423;46.510;6.686;2023-07-30T11:43:24;96580.38;;;24.75;46.74
57594;BME280;43423;46.510;6.686;2023-07-30T11:46:15;96582.44;;;24.75;44.44
57594;BME280;43423;46.510;6.686;2023-07-30T11:48:41;96576.53;;;24.88;44.30
57594;BME280;43423;46.510;6.686;2023-07-30T11:51:21;96575.78;;;24.88;45.63
57594;BME280;43423;46.510;6.686;2023-07-30T11:56:22;96578.66;;;25.13;42.44
57594;BME280;43423;46.510;6.686;2023-07-30T11:58:49;96573.13;;;24.97;45.66
57594;BME280;43423;46.510;6.686;2023-07-30T12:01:18;96576.16;;;24.92;42.13
57594;BME280;43423;46.510;6.686;2023-07-30T12:03:44;96566.94;;;25.24;42.18
57594;BME280;43423;46.510;6.686;2023-07-30T12:06:11;96571.94;;;25.08;41.50
57594;BME280;43423;46.510;6.686;2023-07-30T12:08:37;96562.84;;;25.17;42.67
57594;BME280;43423;46.510;6.686;2023-07-30T12:11:04;96557.59;;;25.39;42.44
57594;BME280;43423;46.510;6.686;2023-07-30T12:13:30;96567.59;;;25.32;41.30
57594;BME280;43423;46.510;6.686;2023-07-30T12:15:56;96557.09;;;25.32;41.80
57594;BME280;43423;46.510;6.686;2023-07-30T12:18:24;96559.69;;;25.38;41.01
57594;BME280;43423;46.510;6.686;2023-07-30T12:20:50;96561.16;;;25.39;42.24
57594;BME280;43423;46.510;6.686;2023-07-30T12:23:17;96547.06;;;25.22;40.19
57594;BME280;43423;46.510;6.686;2023-07-30T12:25:42;96555.59;;;25.31;42.14
57594;BME280;43423;46.510;6.686;2023-07-30T12:28:08;96559.41;;;25.26;40.25
57594;BME280;43423;46.510;6.686;2023-07-30T12:30:34;96552.78;;;25.31;41.08
57594;BME280;43423;46.510;6.686;2023-07-30T12:33:01;96553.53;;;25.32;40.55
57594;BME280;43423;46.510;6.686;2023-07-30T12:35:26;96557.22;;;25.17;39.06
57594;BME280;43423;46.510;6.686;2023-07-30T12:37:52;96549.97;;;25.31;40.37
57594;BME280;43423;46.510;6.686;2023-07-30T12:40:17;96540.75;;;25.14;40.59
57594;BME280;43423;46.510;6.686;2023-07-30T12:42:43;96547.03;;;25.04;37.43
57594;BME280;43423;46.510;6.686;2023-07-30T12:45:09;96548.63;;;25.15;36.54
57594;BME280;43423;46.510;6.686;2023-07-30T12:47:35;96545.94;;;25.42;36.88
57594;BME280;43423;46.510;6.686;2023-07-30T12:50:02;96540.66;;;25.64;37.29
57594;BME280;43423;46.510;6.686;2023-07-30T12:52:28;96541.09;;;25.60;36.80
57594;BME280;43423;46.510;6.686;2023-07-30T12:54:54;96538.75;;;25.66;33.05
57594;BME280;43423;46.510;6.686;2023-07-30T12:57:20;96533.63;;;25.55;33.88
57594;BME280;43423;46.510;6.686;2023-07-30T12:59:45;96532.44;;;25.58;33.11
57594;BME280;43423;46.510;6.686;2023-07-30T13:02:11;96528.00;;;25.55;32.04